Kingsville Naval Air Station
KNQI : rendu visible

Aérodrome :











RETROUVEZ-NOUS SUR...

 
LOGIN :

S'inscrire | Disclaimer

   EN    FR    IT 

 









Légende :    VFR   VFR Marginal   IFR   IFR Intensif   IFR Très Intensif
Visi : 
Plafond : 
>= 8 km
>= 3000ft
5 à 8 km
1000 à 3000 ft
1500m à 5 km
500 à 1000 ft
800 à 1500m
200 à 500 ft
< 800m
< 200 ft
Symboles :   Orages  Brouillard  Fortes neiges  Fortes précipitations  Vent > 20 kt






- Altitude de l'aérodrome : 50 ft


KNQI - Kingsville Naval Air Station

DERNIER METAR :
  • 100756Z AUTO 08003KT 6SM BR FEW019 BKN024 OVC045 23/21 A2984 RMK AO2 SLP102 T02280206

METARs EXPIRÉS :
  • 100730Z AUTO 09003KT 5SM BR BKN019 BKN030 OVC036 23/21 A2984 RMK AO2 T02280206
  • 100656Z AUTO 10004KT 5SM BR SCT026 OVC034 22/21 A2983 RMK AO2 SLP099 T02220206
  • 100556Z 09004KT 5SM BR OVC029 22/20 A2983 RMK AO2 SLP098 T02220200 10250 20211 403170167 51009

TAF TAF KNQI
Valide du 10 à 07h jusqu'au 11 à 07h UTC


1007/1107 15010KT 9999 VCSH BKN015 BKN030 OVC100 QNH2978INS
TEMPO 1007/1009 18012G20KT 6000 -RA BR BKN010 OVC025
FM100900 VRB06KT 6000 -RA BR BKN012 OVC020 QNH2981INS
TEMPO 1009/1012 01012G20KT 3200 -RA BR BKN008 OVC015
BECMG 1012/1014 36022G30KT 9000 -RA BKN012 OVC020 510005 QNH3008INS
FM101900 35020G27KT 9999 VCSH BKN014 OVC025 510005 QNH3010INS
FM110200 35016G22KT 9999 SCT015 BKN040 BKN250 500000 QNH3030INS AUTOMATED SENSOR METWATCH 1007 TIL 1012 T10/1013Z T12/1020Z FN00189



MET'MAP, la Météo Aéronautique d'un coup d'oeil ! - Copyright ORBIFLY Décembre 2007 - Disclaimer

ORBIFLY MET'MAP TEAM :

Programmation & Développement : Alexandra Zaïnal
Sur une idée originale de : Baudouin d'Aumeries
Assistance à la programmation : Marc-Olivier Méhu
Soutien technique & logistique : Manuel Goepfert

Contact : metmap@orbifly.com




SOURCES & CREDITS :

   NOAA       Earth
Advisory